createdAt,value
2022-08-12T00:01:02.405Z,101837.28
2022-08-12T00:03:47.678Z,101836.16
2022-08-12T00:06:33.899Z,101835.28
2022-08-12T00:09:23.148Z,101837.97
2022-08-12T00:12:11.337Z,101842.47
2022-08-12T00:14:56.725Z,101843.34
2022-08-12T00:17:42.483Z,101827.25
2022-08-12T00:20:29.807Z,101834.09
2022-08-12T00:23:16.552Z,101829.13
2022-08-12T00:26:22.861Z,101822.25
2022-08-12T00:29:11.521Z,101829.56
2022-08-12T00:31:58.197Z,101834.50
2022-08-12T00:34:46.168Z,101832.19
2022-08-12T00:37:34.052Z,101836.97
2022-08-12T00:40:19.668Z,101839.66
2022-08-12T00:42:48.475Z,101830.56
2022-08-12T00:45:15.173Z,101836.59
2022-08-12T00:47:42.953Z,101832.97
2022-08-12T00:50:17.829Z,101830.44
2022-08-12T00:52:50.349Z,101825.41
2022-08-12T00:55:18.244Z,101827.88
2022-08-12T00:57:48.559Z,101824.38
2022-08-12T01:00:19.554Z,101827.28
2022-08-12T01:02:57.501Z,101823.88
2022-08-12T01:05:44.334Z,101829.25
2022-08-12T01:08:30.593Z,101824.38
2022-08-12T01:11:15.662Z,101827.78
2022-08-12T01:13:47.561Z,101823.22
2022-08-12T01:16:18.079Z,101821.03
2022-08-12T01:18:45.335Z,101821.09
2022-08-12T01:21:27.225Z,101818.09
2022-08-12T01:24:32.142Z,101822.19
2022-08-12T01:27:01.422Z,101815.47
2022-08-12T01:29:32.851Z,101814.88
2022-08-12T01:32:05.394Z,101822.25
2022-08-12T01:34:38.440Z,101813.75
2022-08-12T01:37:08.835Z,101811.50
2022-08-12T01:39:38.791Z,101813.78
2022-08-12T01:42:26.802Z,101815.13
2022-08-12T01:44:54.274Z,101808.16
2022-08-12T01:47:33.059Z,101812.16
2022-08-12T01:50:21.275Z,101806.31
2022-08-12T01:52:53.875Z,101809.25
2022-08-12T01:55:34.621Z,101801.78
2022-08-12T01:58:25.309Z,101803.31
2022-08-12T02:01:08.922Z,101795.28
2022-08-12T02:04:20.053Z,101798.66
2022-08-12T02:07:19.526Z,101796.53
2022-08-12T02:10:50.443Z,101805.94
2022-08-12T02:13:48.205Z,101806.44
2022-08-12T02:16:23.580Z,101797.06
2022-08-12T02:19:22.595Z,101802.09
2022-08-12T02:22:12.168Z,101804.75
2022-08-12T02:24:42.550Z,101806.97
2022-08-12T02:27:10.785Z,101803.56
2022-08-12T02:29:40.432Z,101806.56
2022-08-12T02:32:08.605Z,101801.38
2022-08-12T02:34:35.596Z,101800.34
2022-08-12T02:37:03.770Z,101800.25
2022-08-12T02:39:34.028Z,101799.63
2022-08-12T02:42:04.695Z,101802.00
2022-08-12T02:44:40.155Z,101800.47
2022-08-12T02:47:08.296Z,101798.34
2022-08-12T02:49:58.732Z,101796.03
2022-08-12T02:52:27.399Z,101786.56
2022-08-12T02:55:01.510Z,101797.44
2022-08-12T02:57:30.323Z,101797.03
2022-08-12T02:59:57.908Z,101791.97
2022-08-12T03:02:28.658Z,101787.16
2022-08-12T03:04:57.366Z,101793.47
2022-08-12T03:07:24.934Z,101792.44
2022-08-12T03:10:06.969Z,101786.41
2022-08-12T03:12:40.012Z,101791.22
2022-08-12T03:15:22.197Z,101788.31
2022-08-12T03:18:26.445Z,101788.34
2022-08-12T03:20:51.396Z,101781.19
2022-08-12T03:23:29.683Z,101788.81
2022-08-12T03:25:59.428Z,101781.50
2022-08-12T03:28:48.686Z,101787.09
2022-08-12T03:31:15.361Z,101783.69
2022-08-12T03:33:45.672Z,101779.94
2022-08-12T03:36:31.688Z,101777.53
2022-08-12T03:39:18.746Z,101784.38
2022-08-12T03:42:01.719Z,101772.31
2022-08-12T03:44:56.986Z,101769.38
2022-08-12T03:47:53.902Z,101777.16
2022-08-12T03:50:39.404Z,101784.59
2022-08-12T03:53:27.309Z,101786.16
2022-08-12T03:56:13.344Z,101776.72
2022-08-12T03:58:59.860Z,101772.81
2022-08-12T04:01:27.779Z,101785.53
2022-08-12T04:03:55.253Z,101777.06
2022-08-12T04:06:35.593Z,101788.22
2022-08-12T04:09:15.788Z,101769.22
2022-08-12T04:12:03.002Z,101772.16
2022-08-12T04:14:29.812Z,101773.41
2022-08-12T04:16:57.305Z,101774.72
2022-08-12T04:19:26.211Z,101776.59
2022-08-12T04:22:01.790Z,101779.16
2022-08-12T04:24:35.980Z,101774.03
2022-08-12T04:27:07.316Z,101776.59
2022-08-12T04:30:29.338Z,101773.78
2022-08-12T04:32:21.950Z,101779.25
2022-08-12T04:34:49.897Z,101779.78
2022-08-12T04:37:16.698Z,101770.13
2022-08-12T04:39:46.588Z,101772.38
2022-08-12T04:42:13.439Z,101777.97
2022-08-12T04:44:40.173Z,101781.38
2022-08-12T04:47:10.112Z,101776.97
2022-08-12T04:49:38.228Z,101778.47
2022-08-12T04:52:05.748Z,101780.34
2022-08-12T04:54:34.091Z,101781.97
2022-08-12T04:57:04.526Z,101779.69
2022-08-12T04:59:47.562Z,101779.31
2022-08-12T05:02:21.770Z,101782.56
2022-08-12T05:05:00.551Z,101776.78
2022-08-12T05:07:28.243Z,101786.06
2022-08-12T05:10:00.853Z,101774.28
2022-08-12T05:12:37.192Z,101773.88
2022-08-12T05:15:16.734Z,101774.66
2022-08-12T05:17:55.081Z,101781.13
2022-08-12T05:20:22.552Z,101775.03
2022-08-12T05:22:56.885Z,101772.94
2022-08-12T05:25:25.026Z,101774.69
2022-08-12T05:27:58.630Z,101768.06
2022-08-12T05:30:33.447Z,101770.19
2022-08-12T05:33:05.299Z,101767.94
2022-08-12T05:35:39.919Z,101770.41
2022-08-12T05:38:35.837Z,101764.56
2022-08-12T05:41:05.050Z,101773.09
2022-08-12T05:43:33.990Z,101777.31
2022-08-12T05:46:00.654Z,101770.50
2022-08-12T05:48:28.332Z,101777.94
2022-08-12T05:50:56.753Z,101776.66
2022-08-12T05:53:23.903Z,101783.06
2022-08-12T05:55:53.213Z,101790.25
2022-08-12T05:58:21.163Z,101786.59
2022-08-12T06:00:48.166Z,101779.69
2022-08-12T06:03:19.699Z,101784.09
2022-08-12T06:05:55.056Z,101787.53
2022-08-12T06:08:24.987Z,101797.50
2022-08-12T06:10:52.210Z,101794.84
2022-08-12T06:13:25.479Z,101794.38
2022-08-12T06:16:07.326Z,101796.06
2022-08-12T06:18:34.498Z,101786.44
2022-08-12T06:21:01.848Z,101795.88
2022-08-12T06:23:29.799Z,101790.31
2022-08-12T06:25:57.730Z,101786.16
2022-08-12T06:28:25.180Z,101796.56
2022-08-12T06:31:15.302Z,101798.53
2022-08-12T06:34:01.092Z,101793.94
2022-08-12T06:36:33.373Z,101793.31
2022-08-12T06:39:00.830Z,101795.97
2022-08-12T06:42:02.630Z,101792.09
2022-08-12T06:44:32.882Z,101791.47
2022-08-12T06:47:00.283Z,101799.72
2022-08-12T06:49:28.359Z,101794.03
2022-08-12T06:51:56.625Z,101797.34
2022-08-12T06:54:31.532Z,101797.31
2022-08-12T06:57:04.032Z,101799.72
2022-08-12T06:59:31.295Z,101796.84
2022-08-12T07:01:58.576Z,101788.09
2022-08-12T07:04:36.275Z,101789.38
2022-08-12T07:07:08.541Z,101790.41
2022-08-12T07:10:04.298Z,101790.44
2022-08-12T07:12:22.534Z,101790.13
2022-08-12T07:14:51.479Z,101788.94
2022-08-12T07:17:18.826Z,101784.03
2022-08-12T07:19:48.599Z,101790.63
2022-08-12T07:22:16.627Z,101788.72
2022-08-12T07:25:04.006Z,101790.06
2022-08-12T07:27:31.092Z,101790.16
2022-08-12T07:30:04.888Z,101790.84
2022-08-12T07:32:31.931Z,101780.78
2022-08-12T07:34:58.638Z,101778.06
2022-08-12T07:37:25.279Z,101788.38
2022-08-12T07:40:00.521Z,101787.75
2022-08-12T07:42:29.363Z,101782.38
2022-08-12T07:44:56.656Z,101783.41
2022-08-12T07:47:24.236Z,101786.84
2022-08-12T07:50:04.638Z,101777.91
2022-08-12T07:52:33.179Z,101780.72
2022-08-12T07:55:00.426Z,101791.06
2022-08-12T07:57:27.075Z,101785.66
2022-08-12T07:59:55.488Z,101792.63
2022-08-12T08:02:26.923Z,101791.94
2022-08-12T08:04:57.732Z,101795.66
2022-08-12T08:07:30.415Z,101796.41
2022-08-12T08:10:00.045Z,101794.56
2022-08-12T08:12:46.901Z,101791.75
2022-08-12T08:15:15.158Z,101791.78
2022-08-12T08:17:57.781Z,101794.59
2022-08-12T08:20:28.698Z,101795.50
2022-08-12T08:22:57.989Z,101792.41
2022-08-12T08:25:36.335Z,101793.94
2022-08-12T08:28:14.642Z,101787.06
2022-08-12T08:30:43.949Z,101794.13
2022-08-12T08:33:23.139Z,101789.72
2022-08-12T08:35:54.264Z,101795.34
2022-08-12T08:38:31.841Z,101792.41
2022-08-12T08:42:16.100Z,101791.75
2022-08-12T08:44:06.051Z,101799.22
2022-08-12T08:46:37.682Z,101792.13
2022-08-12T08:49:05.368Z,101797.16
2022-08-12T08:51:32.754Z,101792.66
2022-08-12T08:53:59.471Z,101795.13
2022-08-12T08:56:27.161Z,101791.72
2022-08-12T08:58:53.878Z,101798.13
2022-08-12T09:01:23.402Z,101791.16
2022-08-12T09:05:08.434Z,101793.16
2022-08-12T09:06:53.407Z,101791.97
2022-08-12T09:09:20.850Z,101784.50
2022-08-12T09:12:11.934Z,101792.47
2022-08-12T09:17:42.791Z,101792.41
2022-08-12T09:20:15.992Z,101786.19
2022-08-12T09:22:43.057Z,101784.59
2022-08-12T09:28:18.492Z,101785.41
2022-08-12T09:30:53.830Z,101782.03
2022-08-12T09:34:25.932Z,101776.91
2022-08-12T09:36:31.169Z,101768.81
2022-08-12T09:40:05.030Z,101772.00
2022-08-12T09:42:41.075Z,101768.59
2022-08-12T09:45:22.754Z,101764.78
2022-08-12T09:47:59.280Z,101773.88
2022-08-12T09:50:27.660Z,101759.28
2022-08-12T09:53:15.078Z,101767.84
2022-08-12T09:55:59.635Z,101757.88
2022-08-12T09:58:58.901Z,101766.53
2022-08-12T10:01:24.406Z,101755.91
2022-08-12T10:03:55.491Z,101759.69
2022-08-12T10:06:36.038Z,101758.69
2022-08-12T10:09:06.747Z,101755.03
2022-08-12T10:12:11.589Z,101750.75
2022-08-12T10:14:39.978Z,101728.63
2022-08-12T10:17:22.708Z,101737.09
2022-08-12T10:19:52.849Z,101729.00
2022-08-12T10:22:39.007Z,101727.22
2022-08-12T10:26:33.823Z,101733.13
2022-08-12T10:28:38.272Z,101729.25
2022-08-12T10:31:05.942Z,101725.59
2022-08-12T10:33:55.068Z,101709.41
2022-08-12T10:36:36.205Z,101710.81
2022-08-12T10:40:01.879Z,101705.69
2022-08-12T10:42:29.505Z,101709.41
2022-08-12T10:45:05.150Z,101698.72
2022-08-12T10:48:07.323Z,101699.91
2022-08-12T10:50:29.540Z,101700.34
2022-08-12T10:53:09.046Z,101688.13
2022-08-12T10:55:36.083Z,101683.34
2022-08-12T10:58:14.588Z,101686.38
2022-08-12T11:01:26.299Z,101686.53
2022-08-12T11:04:26.471Z,101683.09
2022-08-12T11:07:06.572Z,101680.53
2022-08-12T11:09:55.554Z,101679.91
2022-08-12T11:12:58.169Z,101677.34
2022-08-12T11:14:56.764Z,101673.84
2022-08-12T11:17:52.361Z,101675.63
2022-08-12T11:20:15.088Z,101670.22
2022-08-12T11:22:42.307Z,101668.75
2022-08-12T11:25:24.919Z,101662.19
2022-08-12T11:28:13.493Z,101660.16
2022-08-12T11:30:40.684Z,101667.63
2022-08-12T11:33:11.694Z,101661.19
2022-08-12T11:35:42.986Z,101674.09
2022-08-12T11:38:10.933Z,101669.13
2022-08-12T11:40:38.021Z,101664.88
2022-08-12T11:43:19.141Z,101665.25
2022-08-12T11:45:47.705Z,101660.34
2022-08-12T11:48:20.490Z,101659.09
2022-08-12T11:50:54.375Z,101651.63
2022-08-12T11:54:01.173Z,101646.53
2022-08-12T11:56:08.213Z,101651.53
2022-08-12T12:01:58.851Z,101664.66
2022-08-12T12:02:01.567Z,101644.47
2022-08-12T12:04:11.848Z,101649.47
2022-08-12T12:06:38.729Z,101655.13
2022-08-12T12:09:08.035Z,101650.91
2022-08-12T12:11:48.983Z,101650.09
2022-08-12T12:14:17.816Z,101637.25
2022-08-12T12:16:48.249Z,101640.00
2022-08-12T12:19:17.759Z,101642.56
2022-08-12T12:21:47.814Z,101640.44
2022-08-12T12:24:21.307Z,101630.34
2022-08-12T12:27:00.277Z,101636.25
2022-08-12T12:30:17.533Z,101629.94
2022-08-12T12:32:19.251Z,101630.63
2022-08-12T12:35:13.848Z,101631.28
2022-08-12T12:38:04.168Z,101621.41
2022-08-12T12:40:34.387Z,101623.47
2022-08-12T12:43:05.105Z,101625.31
2022-08-12T12:45:35.476Z,101626.53
2022-08-12T12:48:05.575Z,101622.59
2022-08-12T12:50:45.053Z,101606.28
2022-08-12T12:54:08.746Z,101609.56
2022-08-12T12:56:05.891Z,101609.84
2022-08-12T12:58:34.015Z,101606.69
2022-08-12T13:01:04.783Z,101607.19
2022-08-12T13:03:49.115Z,101603.25
2022-08-12T13:06:16.241Z,101598.03
2022-08-12T13:08:46.857Z,101600.31
2022-08-12T13:11:14.792Z,101597.97
2022-08-12T13:14:07.277Z,101601.03
2022-08-12T13:16:30.385Z,101583.47
2022-08-12T13:18:57.379Z,101596.34
2022-08-12T13:21:36.750Z,101599.06
2022-08-12T13:24:10.743Z,101594.56
2022-08-12T13:26:40.000Z,101591.59
2022-08-12T13:29:11.239Z,101587.22
2022-08-12T13:32:17.605Z,101587.84
2022-08-12T13:34:34.809Z,101587.44
2022-08-12T13:37:09.199Z,101586.94
2022-08-12T13:39:37.453Z,101591.97
2022-08-12T13:42:14.660Z,101582.72
2022-08-12T13:44:42.492Z,101579.88
2022-08-12T13:47:10.356Z,101578.88
2022-08-12T13:49:53.673Z,101575.06
2022-08-12T13:52:23.500Z,101578.03
2022-08-12T13:54:56.243Z,101572.38
2022-08-12T13:57:25.623Z,101573.84
2022-08-12T13:59:55.488Z,101565.19
2022-08-12T14:02:27.315Z,101576.91
2022-08-12T14:04:56.558Z,101566.44
2022-08-12T14:07:26.009Z,101565.22
2022-08-12T14:10:12.297Z,101564.03
2022-08-12T14:12:54.399Z,101558.53
2022-08-12T14:15:35.031Z,101554.88
2022-08-12T14:18:12.990Z,101562.19
2022-08-12T14:20:41.675Z,101557.56
2022-08-12T14:23:34.239Z,101565.81
2022-08-12T14:25:58.931Z,101565.97
2022-08-12T14:28:26.982Z,101557.13
2022-08-12T14:31:01.201Z,101561.13
2022-08-12T14:33:43.333Z,101554.75
2022-08-12T14:36:12.888Z,101555.69
2022-08-12T14:38:42.122Z,101551.59
2022-08-12T14:41:14.699Z,101547.06
2022-08-12T14:43:44.347Z,101554.66
2022-08-12T14:46:29.838Z,101545.91
2022-08-12T14:48:56.685Z,101549.47
2022-08-12T14:52:42.765Z,101554.00
2022-08-12T14:57:20.061Z,101539.03
2022-08-12T15:00:10.205Z,101538.38
2022-08-12T15:02:38.969Z,101542.63
2022-08-12T15:05:06.664Z,101535.41
2022-08-12T15:07:51.346Z,101535.75
2022-08-12T15:10:31.665Z,101534.25
2022-08-12T15:12:59.946Z,101539.16
2022-08-12T15:15:27.784Z,101526.72
2022-08-12T15:18:02.176Z,101538.44
2022-08-12T15:20:37.531Z,101533.47
2022-08-12T15:23:18.090Z,101520.16
2022-08-12T15:26:02.483Z,101519.03
2022-08-12T15:28:32.629Z,101519.78
2022-08-12T15:30:59.753Z,101515.47
2022-08-12T15:33:44.623Z,101521.41
2022-08-12T15:36:14.528Z,101520.59
2022-08-12T15:38:46.710Z,101525.69
2022-08-12T15:41:15.423Z,101514.06
2022-08-12T15:44:16.051Z,101516.16
2022-08-12T15:46:32.184Z,101522.81
2022-08-12T15:48:59.418Z,101530.22
2022-08-12T15:51:57.588Z,101524.38
2022-08-12T15:54:33.352Z,101528.06
2022-08-12T15:57:08.101Z,101515.19
2022-08-12T16:00:03.721Z,101510.63
2022-08-12T16:02:29.422Z,101507.69
2022-08-12T16:04:56.489Z,101512.34
2022-08-12T16:07:29.870Z,101507.75
2022-08-12T16:10:05.994Z,101508.66
2022-08-12T16:12:43.729Z,101519.00
2022-08-12T16:15:24.945Z,101509.13
2022-08-12T16:18:14.960Z,101510.44
2022-08-12T16:20:41.556Z,101513.19
2022-08-12T16:23:26.860Z,101508.13
2022-08-12T16:26:14.083Z,101512.75
2022-08-12T16:28:43.591Z,101497.00
2022-08-12T16:31:14.530Z,101502.28
2022-08-12T16:33:59.488Z,101503.75
2022-08-12T16:36:30.794Z,101505.56
2022-08-12T16:39:01.333Z,101500.56
2022-08-12T16:41:29.142Z,101505.16
2022-08-12T16:44:05.206Z,101498.84
2022-08-12T16:46:33.757Z,101502.31
2022-08-12T16:49:09.265Z,101502.97
2022-08-12T16:51:46.490Z,101505.44
2022-08-12T16:54:16.393Z,101505.84
2022-08-12T16:56:55.006Z,101487.38
2022-08-12T16:59:31.137Z,101496.97
2022-08-12T17:02:31.151Z,101497.53
2022-08-12T17:05:01.032Z,101486.03
2022-08-12T17:07:36.749Z,101496.69
2022-08-12T17:10:12.011Z,101495.72
2022-08-12T17:12:39.096Z,101492.63
2022-08-12T17:15:50.600Z,101490.63
2022-08-12T17:18:39.156Z,101493.63
2022-08-12T17:20:46.722Z,101492.38
2022-08-12T17:23:15.885Z,101496.31
2022-08-12T17:25:50.234Z,101496.53
2022-08-12T17:28:18.203Z,101496.19
2022-08-12T17:30:45.733Z,101492.44
2022-08-12T17:33:24.939Z,101490.78
2022-08-12T17:35:53.247Z,101488.75
2022-08-12T17:38:21.014Z,101491.09
2022-08-12T17:40:48.508Z,101491.13
2022-08-12T17:43:54.878Z,101488.06
2022-08-12T17:46:12.909Z,101489.63
2022-08-12T17:48:55.747Z,101491.47
2022-08-12T17:51:25.268Z,101493.34
2022-08-12T17:54:11.676Z,101493.97
2022-08-12T17:56:43.268Z,101509.28
2022-08-12T17:59:12.349Z,101497.31
2022-08-12T18:01:43.349Z,101502.47
2022-08-12T18:04:22.116Z,101515.59
2022-08-12T18:06:53.982Z,101515.28
2022-08-12T18:09:24.550Z,101514.72
2022-08-12T18:12:11.865Z,101509.13
2022-08-12T18:14:41.113Z,101508.53
2022-08-12T18:17:09.658Z,101510.78
2022-08-12T18:20:06.501Z,101504.16
2022-08-12T18:22:30.344Z,101500.09
2022-08-12T18:25:06.539Z,101508.19
2022-08-12T18:27:45.714Z,101513.72
2022-08-12T18:30:20.866Z,101517.56
2022-08-12T18:33:04.476Z,101519.50
2022-08-12T18:35:47.977Z,101517.75
2022-08-12T18:38:22.282Z,101514.03
2022-08-12T18:41:09.415Z,101519.19
2022-08-12T18:43:59.471Z,101519.25
2022-08-12T18:46:47.395Z,101516.88
2022-08-12T18:49:38.065Z,101517.09
2022-08-12T18:52:08.076Z,101523.91
2022-08-12T18:54:48.810Z,101532.13
2022-08-12T18:58:07.099Z,101531.75
2022-08-12T19:00:18.875Z,101538.13
2022-08-12T19:02:54.431Z,101532.88
2022-08-12T19:05:23.378Z,101535.69
2022-08-12T19:08:10.882Z,101534.81
2022-08-12T19:10:42.813Z,101536.56
2022-08-12T19:13:36.558Z,101531.75
2022-08-12T19:16:10.807Z,101534.88
2022-08-12T19:18:40.945Z,101539.94
2022-08-12T19:21:16.123Z,101540.78
2022-08-12T19:23:43.573Z,101546.88
2022-08-12T19:26:12.445Z,101548.84
2022-08-12T19:28:40.103Z,101549.31
2022-08-12T19:31:57.361Z,101557.84
2022-08-12T19:38:02.636Z,101551.69
2022-08-12T19:40:31.468Z,101545.19
2022-08-12T19:43:18.865Z,101555.66
2022-08-12T19:45:54.385Z,101550.53
2022-08-12T19:48:30.471Z,101553.47
2022-08-12T19:50:57.951Z,101550.91
2022-08-12T19:53:25.189Z,101555.16
2022-08-12T19:55:56.382Z,101556.63
2022-08-12T19:58:25.046Z,101557.25
2022-08-12T20:00:53.362Z,101559.41
2022-08-12T20:03:39.925Z,101561.22
2022-08-12T20:06:16.109Z,101546.59
2022-08-12T20:08:56.065Z,101550.72
2022-08-12T20:12:09.440Z,101553.50
2022-08-12T20:14:14.143Z,101553.97
2022-08-12T20:16:52.198Z,101556.56
2022-08-12T20:19:21.168Z,101554.56
2022-08-12T20:21:50.441Z,101564.59
2022-08-12T20:24:17.120Z,101558.25
2022-08-12T20:26:46.610Z,101562.00
2022-08-12T20:29:14.904Z,101559.50
2022-08-12T20:31:43.868Z,101556.28
2022-08-12T20:34:12.081Z,101558.25
2022-08-12T20:36:44.316Z,101556.41
2022-08-12T20:39:23.459Z,101569.47
2022-08-12T20:42:07.036Z,101565.00
2022-08-12T20:44:40.216Z,101562.31
2022-08-12T20:47:19.708Z,101565.84
2022-08-12T20:49:55.819Z,101557.09
2022-08-12T20:52:30.176Z,101560.00
2022-08-12T20:54:57.943Z,101557.31
2022-08-12T20:57:38.431Z,101555.88
2022-08-12T21:00:16.659Z,101558.28
2022-08-12T21:02:50.084Z,101566.13
2022-08-12T21:06:11.809Z,101564.88
2022-08-12T21:08:39.909Z,101560.22
2022-08-12T21:11:06.698Z,101556.81
2022-08-12T21:13:39.062Z,101556.34
2022-08-12T21:16:09.982Z,101561.00
2022-08-12T21:18:37.668Z,101563.88
2022-08-12T21:21:06.850Z,101564.22
2022-08-12T21:23:52.296Z,101550.78
2022-08-12T21:26:23.345Z,101564.53
2022-08-12T21:29:01.105Z,101564.47
2022-08-12T21:32:39.849Z,101567.53
2022-08-12T21:34:26.097Z,101563.13
2022-08-12T21:36:53.317Z,101565.31
2022-08-12T21:39:32.618Z,101560.31
2022-08-12T21:42:06.924Z,101562.66
2022-08-12T21:45:46.867Z,101563.97
2022-08-12T21:47:22.643Z,101571.00
2022-08-12T21:50:02.301Z,101571.00
2022-08-12T21:52:34.957Z,101566.25
2022-08-12T21:55:08.513Z,101564.38
2022-08-12T21:57:50.717Z,101568.31
2022-08-12T22:00:23.933Z,101568.09
2022-08-12T22:04:02.256Z,101560.81
2022-08-12T22:06:20.289Z,101569.56
2022-08-12T22:09:02.281Z,101570.34
2022-08-12T22:11:41.071Z,101574.88
2022-08-12T22:14:10.285Z,101573.19
2022-08-12T22:16:50.040Z,101577.47
2022-08-12T22:19:20.885Z,101577.97
2022-08-12T22:21:53.303Z,101577.84
2022-08-12T22:24:26.700Z,101580.75
2022-08-12T22:27:07.971Z,101574.44
2022-08-12T22:30:07.886Z,101579.78
2022-08-12T22:32:42.000Z,101582.69
2022-08-12T22:35:55.635Z,101577.91
2022-08-12T22:38:21.167Z,101582.16
2022-08-12T22:40:49.728Z,101586.66
2022-08-12T22:43:35.965Z,101571.75
2022-08-12T22:46:22.592Z,101573.72
2022-08-12T22:48:53.793Z,101570.44
2022-08-12T22:51:22.350Z,101572.97
2022-08-12T22:53:53.640Z,101575.63
2022-08-12T22:56:30.775Z,101570.53
2022-08-12T22:59:02.928Z,101576.47
2022-08-12T23:01:52.349Z,101571.97
2022-08-12T23:04:28.049Z,101576.56
2022-08-12T23:06:58.427Z,101576.28
2022-08-12T23:09:47.963Z,101578.47
2022-08-12T23:12:37.398Z,101576.03
2022-08-12T23:15:08.698Z,101575.75
2022-08-12T23:17:41.183Z,101581.69
2022-08-12T23:20:10.942Z,101585.56
2022-08-12T23:22:40.258Z,101576.47
2022-08-12T23:25:19.138Z,101577.56
2022-08-12T23:28:29.238Z,101584.75
2022-08-12T23:30:58.730Z,101578.56
2022-08-12T23:34:01.348Z,101576.50
2022-08-12T23:36:39.159Z,101579.44
2022-08-12T23:40:15.480Z,101576.81
2022-08-12T23:42:17.455Z,101578.94
2022-08-12T23:44:47.294Z,101578.50
2022-08-12T23:47:17.520Z,101581.06
2022-08-12T23:49:57.455Z,101576.88
2022-08-12T23:52:32.343Z,101577.72
2022-08-12T23:55:24.015Z,101581.91
2022-08-12T23:58:17.341Z,101585.81
